sensor_id;sensor_type;location;lat;lon;timestamp;pressure;altitude;pressure_sealevel;temperature;humidity
42945;BME280;28584;42.636;23.294;2023-04-19T00:02:14;160675.34;;;7.97;100.00
42945;BME280;28584;42.636;23.294;2023-04-19T00:04:40;160696.66;;;8.05;100.00
42945;BME280;28584;42.636;23.294;2023-04-19T00:07:06;160707.31;;;8.09;100.00
42945;BME280;28584;42.636;23.294;2023-04-19T00:09:31;160690.00;;;8.02;100.00
42945;BME280;28584;42.636;23.294;2023-04-19T00:11:57;160668.69;;;7.94;100.00
42945;BME280;28584;42.636;23.294;2023-04-19T00:14:22;160667.31;;;7.94;100.00
42945;BME280;28584;42.636;23.294;2023-04-19T00:16:47;160687.34;;;8.01;100.00
42945;BME280;28584;42.636;23.294;2023-04-19T00:19:13;160700.66;;;8.06;100.00
42945;BME280;28584;42.636;23.294;2023-04-19T00:21:38;160696.66;;;8.05;100.00
42945;BME280;28584;42.636;23.294;2023-04-19T00:24:04;160684.66;;;8.00;100.00
42945;BME280;28584;42.636;23.294;2023-04-19T00:26:29;160702.00;;;8.07;100.00
42945;BME280;28584;42.636;23.294;2023-04-19T00:28:55;160691.34;;;8.03;100.00
42945;BME280;28584;42.636;23.294;2023-04-19T00:31:20;160655.31;;;7.89;100.00
42945;BME280;28584;42.636;23.294;2023-04-19T00:33:45;160598.03;;;7.68;100.00
42945;BME280;28584;42.636;23.294;2023-04-19T00:36:11;160574.03;;;7.59;100.00
42945;BME280;28584;42.636;23.294;2023-04-19T00:38:36;160547.38;;;7.49;100.00
42945;BME280;28584;42.636;23.294;2023-04-19T00:41:01;160527.34;;;7.41;100.00
42945;BME280;28584;42.636;23.294;2023-04-19T00:43:27;160499.41;;;7.31;100.00
42945;BME280;28584;42.636;23.294;2023-04-19T00:45:52;160478.09;;;7.23;100.00
42945;BME280;28584;42.636;23.294;2023-04-19T00:48:18;160483.41;;;7.25;100.00
42945;BME280;28584;42.636;23.294;2023-04-19T00:50:43;160492.75;;;7.28;100.00
42945;BME280;28584;42.636;23.294;2023-04-19T00:53:09;160503.41;;;7.32;100.00
42945;BME280;28584;42.636;23.294;2023-04-19T00:55:35;160499.41;;;7.31;100.00
42945;BME280;28584;42.636;23.294;2023-04-19T00:58:04;160498.06;;;7.30;100.00
42945;BME280;28584;42.636;23.294;2023-04-19T01:00:30;160483.41;;;7.25;100.00
42945;BME280;28584;42.636;23.294;2023-04-19T01:02:56;160474.09;;;7.21;100.00
42945;BME280;28584;42.636;23.294;2023-04-19T01:05:22;160495.41;;;7.29;100.00
42945;BME280;28584;42.636;23.294;2023-04-19T01:07:47;160478.09;;;7.23;100.00
42945;BME280;28584;42.636;23.294;2023-04-19T01:10:13;160456.75;;;7.15;100.00
42945;BME280;28584;42.636;23.294;2023-04-19T01:12:39;160479.41;;;7.23;100.00
42945;BME280;28584;42.636;23.294;2023-04-19T01:15:05;160472.75;;;7.21;100.00
42945;BME280;28584;42.636;23.294;2023-04-19T01:17:31;160478.09;;;7.23;100.00
42945;BME280;28584;42.636;23.294;2023-04-19T01:20:00;160466.09;;;7.18;100.00
42945;BME280;28584;42.636;23.294;2023-04-19T01:22:26;160444.75;;;7.10;100.00
42945;BME280;28584;42.636;23.294;2023-04-19T01:24:52;160438.09;;;7.08;100.00
42945;BME280;28584;42.636;23.294;2023-04-19T01:27:18;160439.44;;;7.08;100.00
42945;BME280;28584;42.636;23.294;2023-04-19T01:29:44;160447.44;;;7.11;100.00
42945;BME280;28584;42.636;23.294;2023-04-19T01:32:10;160446.09;;;7.11;100.00
42945;BME280;28584;42.636;23.294;2023-04-19T01:34:37;160486.03;;;7.26;100.00
42945;BME280;28584;42.636;23.294;2023-04-19T01:37:02;160434.09;;;7.06;100.00
42945;BME280;28584;42.636;23.294;2023-04-19T01:39:28;160430.09;;;7.05;100.00
42945;BME280;28584;42.636;23.294;2023-04-19T01:41:53;160426.09;;;7.03;100.00
42945;BME280;28584;42.636;23.294;2023-04-19T01:44:19;160422.09;;;7.02;100.00
42945;BME280;28584;42.636;23.294;2023-04-19T01:46:44;160434.09;;;7.06;100.00
42945;BME280;28584;42.636;23.294;2023-04-19T01:49:09;160423.44;;;7.02;100.00
42945;BME280;28584;42.636;23.294;2023-04-19T01:51:37;160435.44;;;7.07;100.00
42945;BME280;28584;42.636;23.294;2023-04-19T01:54:02;160426.09;;;7.03;100.00
42945;BME280;28584;42.636;23.294;2023-04-19T01:56:28;160435.44;;;7.07;100.00
42945;BME280;28584;42.636;23.294;2023-04-19T01:58:54;160427.44;;;7.04;100.00
42945;BME280;28584;42.636;23.294;2023-04-19T02:01:19;160420.78;;;7.01;100.00
42945;BME280;28584;42.636;23.294;2023-04-19T02:03:44;160414.13;;;6.99;100.00
42945;BME280;28584;42.636;23.294;2023-04-19T02:06:11;160406.16;;;6.96;100.00
42945;BME280;28584;42.636;23.294;2023-04-19T02:08:40;160406.16;;;6.96;100.00
42945;BME280;28584;42.636;23.294;2023-04-19T02:11:07;160406.16;;;6.96;100.00
42945;BME280;28584;42.636;23.294;2023-04-19T02:13:33;160392.78;;;6.91;100.00
42945;BME280;28584;42.636;23.294;2023-04-19T02:15:59;160406.16;;;6.96;100.00
42945;BME280;28584;42.636;23.294;2023-04-19T02:18:26;160386.16;;;6.88;100.00
42945;BME280;28584;42.636;23.294;2023-04-19T02:20:54;160379.50;;;6.86;100.00
42945;BME280;28584;42.636;23.294;2023-04-19T02:23:20;160378.16;;;6.85;100.00
42945;BME280;28584;42.636;23.294;2023-04-19T02:25:45;160367.50;;;6.81;100.00
42945;BME280;28584;42.636;23.294;2023-04-19T02:28:10;160356.84;;;6.77;100.00
42945;BME280;28584;42.636;23.294;2023-04-19T02:30:36;160352.84;;;6.76;100.00
42945;BME280;28584;42.636;23.294;2023-04-19T02:33:02;160358.19;;;6.78;100.00
42945;BME280;28584;42.636;23.294;2023-04-19T02:35:27;160348.84;;;6.74;100.00
42945;BME280;28584;42.636;23.294;2023-04-19T02:37:53;160323.56;;;6.65;100.00
42945;BME280;28584;42.636;23.294;2023-04-19T02:40:18;160334.22;;;6.69;100.00
42945;BME280;28584;42.636;23.294;2023-04-19T02:42:44;160323.56;;;6.65;100.00
42945;BME280;28584;42.636;23.294;2023-04-19T02:45:09;160328.84;;;6.67;100.00
42945;BME280;28584;42.636;23.294;2023-04-19T02:47:34;160307.56;;;6.59;100.00
42945;BME280;28584;42.636;23.294;2023-04-19T02:50:00;160318.22;;;6.63;100.00
42945;BME280;28584;42.636;23.294;2023-04-19T02:52:25;160318.22;;;6.63;100.00
42945;BME280;28584;42.636;23.294;2023-04-19T02:54:52;160307.56;;;6.59;100.00
42945;BME280;28584;42.636;23.294;2023-04-19T02:57:17;160315.56;;;6.62;100.00
42945;BME280;28584;42.636;23.294;2023-04-19T02:59:42;160311.56;;;6.60;100.00
42945;BME280;28584;42.636;23.294;2023-04-19T03:02:08;160310.22;;;6.60;100.00
42945;BME280;28584;42.636;23.294;2023-04-19T03:04:33;160308.91;;;6.59;100.00
42945;BME280;28584;42.636;23.294;2023-04-19T03:07:00;160311.56;;;6.60;100.00
42945;BME280;28584;42.636;23.294;2023-04-19T03:09:26;160314.22;;;6.61;100.00
42945;BME280;28584;42.636;23.294;2023-04-19T03:11:51;160310.22;;;6.60;100.00
42945;BME280;28584;42.636;23.294;2023-04-19T03:14:17;160288.94;;;6.52;100.00
42945;BME280;28584;42.636;23.294;2023-04-19T03:16:42;160312.91;;;6.61;100.00
42945;BME280;28584;42.636;23.294;2023-04-19T03:19:08;160291.56;;;6.53;100.00
42945;BME280;28584;42.636;23.294;2023-04-19T03:21:33;160312.91;;;6.61;100.00
42945;BME280;28584;42.636;23.294;2023-04-19T03:23:59;160303.56;;;6.57;100.00
42945;BME280;28584;42.636;23.294;2023-04-19T03:26:25;160296.91;;;6.55;100.00
42945;BME280;28584;42.636;23.294;2023-04-19T03:28:51;160304.91;;;6.58;100.00
42945;BME280;28584;42.636;23.294;2023-04-19T03:31:16;160307.56;;;6.59;100.00
42945;BME280;28584;42.636;23.294;2023-04-19T03:33:42;160288.94;;;6.52;100.00
42945;BME280;28584;42.636;23.294;2023-04-19T03:36:07;160286.28;;;6.51;100.00
42945;BME280;28584;42.636;23.294;2023-04-19T03:38:33;160296.91;;;6.55;100.00
42945;BME280;28584;42.636;23.294;2023-04-19T03:40:58;160300.91;;;6.56;100.00
42945;BME280;28584;42.636;23.294;2023-04-19T03:43:23;160302.22;;;6.57;100.00
42945;BME280;28584;42.636;23.294;2023-04-19T03:45:49;160296.91;;;6.55;100.00
42945;BME280;28584;42.636;23.294;2023-04-19T03:48:14;160279.63;;;6.48;100.00
42945;BME280;28584;42.636;23.294;2023-04-19T03:50:40;160262.28;;;6.42;100.00
42945;BME280;28584;42.636;23.294;2023-04-19T03:53:05;160266.28;;;6.43;100.00
42945;BME280;28584;42.636;23.294;2023-04-19T03:55:31;160262.28;;;6.42;100.00
42945;BME280;28584;42.636;23.294;2023-04-19T03:57:56;160280.94;;;6.49;100.00
42945;BME280;28584;42.636;23.294;2023-04-19T04:00:21;160267.63;;;6.44;100.00
42945;BME280;28584;42.636;23.294;2023-04-19T04:02:47;160270.28;;;6.45;100.00
42945;BME280;28584;42.636;23.294;2023-04-19T04:05:13;160262.28;;;6.42;100.00
42945;BME280;28584;42.636;23.294;2023-04-19T04:07:39;160276.94;;;6.47;100.00
42945;BME280;28584;42.636;23.294;2023-04-19T04:10:05;160287.56;;;6.51;100.00
42945;BME280;28584;42.636;23.294;2023-04-19T04:12:30;160290.28;;;6.52;100.00
42945;BME280;28584;42.636;23.294;2023-04-19T04:14:56;160299.56;;;6.56;100.00
42945;BME280;28584;42.636;23.294;2023-04-19T04:17:21;160307.56;;;6.59;100.00
42945;BME280;28584;42.636;23.294;2023-04-19T04:19:48;160307.56;;;6.59;100.00
42945;BME280;28584;42.636;23.294;2023-04-19T04:22:14;160312.91;;;6.61;100.00
42945;BME280;28584;42.636;23.294;2023-04-19T04:24:40;160331.56;;;6.68;100.00
42945;BME280;28584;42.636;23.294;2023-04-19T04:27:06;160336.84;;;6.70;100.00
42945;BME280;28584;42.636;23.294;2023-04-19T04:29:34;160328.84;;;6.67;100.00
42945;BME280;28584;42.636;23.294;2023-04-19T04:32:01;160339.56;;;6.71;100.00
42945;BME280;28584;42.636;23.294;2023-04-19T04:34:26;160346.19;;;6.73;100.00
42945;BME280;28584;42.636;23.294;2023-04-19T04:36:52;160334.22;;;6.69;100.00
42945;BME280;28584;42.636;23.294;2023-04-19T04:39:17;160331.56;;;6.68;100.00
42945;BME280;28584;42.636;23.294;2023-04-19T04:41:43;160338.22;;;6.70;100.00
42945;BME280;28584;42.636;23.294;2023-04-19T04:44:08;160331.56;;;6.68;100.00
42945;BME280;28584;42.636;23.294;2023-04-19T04:46:36;160323.56;;;6.65;100.00
42945;BME280;28584;42.636;23.294;2023-04-19T04:49:02;160340.84;;;6.71;100.00
42945;BME280;28584;42.636;23.294;2023-04-19T04:51:27;160342.19;;;6.72;100.00
42945;BME280;28584;42.636;23.294;2023-04-19T04:53:53;160352.84;;;6.76;100.00
42945;BME280;28584;42.636;23.294;2023-04-19T04:56:18;160339.56;;;6.71;100.00
42945;BME280;28584;42.636;23.294;2023-04-19T04:58:43;160344.84;;;6.73;100.00
42945;BME280;28584;42.636;23.294;2023-04-19T05:01:09;160352.84;;;6.76;100.00
42945;BME280;28584;42.636;23.294;2023-04-19T05:03:34;160380.84;;;6.86;100.00
42945;BME280;28584;42.636;23.294;2023-04-19T05:06:00;160363.50;;;6.80;100.00
42945;BME280;28584;42.636;23.294;2023-04-19T05:08:25;160376.84;;;6.85;100.00
42945;BME280;28584;42.636;23.294;2023-04-19T05:10:51;160376.84;;;6.85;100.00
42945;BME280;28584;42.636;23.294;2023-04-19T05:13:16;160364.84;;;6.80;100.00
42945;BME280;28584;42.636;23.294;2023-04-19T05:15:42;160390.16;;;6.90;100.00
42945;BME280;28584;42.636;23.294;2023-04-19T05:18:07;160390.16;;;6.90;100.00
42945;BME280;28584;42.636;23.294;2023-04-19T05:20:33;160395.50;;;6.92;100.00
42945;BME280;28584;42.636;23.294;2023-04-19T05:23:01;160382.16;;;6.87;100.00
42945;BME280;28584;42.636;23.294;2023-04-19T05:25:28;160395.50;;;6.92;100.00
42945;BME280;28584;42.636;23.294;2023-04-19T05:27:53;160387.50;;;6.89;100.00
42945;BME280;28584;42.636;23.294;2023-04-19T05:30:18;160382.16;;;6.87;100.00
42945;BME280;28584;42.636;23.294;2023-04-19T05:32:44;160398.16;;;6.93;100.00
42945;BME280;28584;42.636;23.294;2023-04-19T05:35:10;160426.09;;;7.03;100.00
42945;BME280;28584;42.636;23.294;2023-04-19T05:37:36;160440.78;;;7.09;100.00
42945;BME280;28584;42.636;23.294;2023-04-19T05:40:03;160438.09;;;7.08;100.00
42945;BME280;28584;42.636;23.294;2023-04-19T05:42:30;160456.75;;;7.15;100.00
42945;BME280;28584;42.636;23.294;2023-04-19T05:44:55;160462.09;;;7.17;100.00
42945;BME280;28584;42.636;23.294;2023-04-19T05:47:20;160454.09;;;7.14;100.00
42945;BME280;28584;42.636;23.294;2023-04-19T05:49:46;160443.44;;;7.10;100.00
42945;BME280;28584;42.636;23.294;2023-04-19T05:52:11;160456.75;;;7.15;100.00
42945;BME280;28584;42.636;23.294;2023-04-19T05:54:37;160463.38;;;7.17;100.00
42945;BME280;28584;42.636;23.294;2023-04-19T05:57:02;160506.06;;;7.33;100.00
42945;BME280;28584;42.636;23.294;2023-04-19T05:59:28;160514.06;;;7.36;100.00
42945;BME280;28584;42.636;23.294;2023-04-19T06:01:53;160544.72;;;7.48;100.00
42945;BME280;28584;42.636;23.294;2023-04-19T06:04:20;160526.06;;;7.41;100.00
42945;BME280;28584;42.636;23.294;2023-04-19T06:06:46;160584.69;;;7.63;100.00
42945;BME280;28584;42.636;23.294;2023-04-19T06:09:11;160582.03;;;7.62;100.00
42945;BME280;28584;42.636;23.294;2023-04-19T06:11:38;160579.38;;;7.61;100.00
42945;BME280;28584;42.636;23.294;2023-04-19T06:14:03;160562.03;;;7.54;100.00
42945;BME280;28584;42.636;23.294;2023-04-19T06:16:30;160531.38;;;7.43;100.00
42945;BME280;28584;42.636;23.294;2023-04-19T06:18:56;160598.03;;;7.68;100.00
42945;BME280;28584;42.636;23.294;2023-04-19T06:21:21;160644.66;;;7.85;100.00
42945;BME280;28584;42.636;23.294;2023-04-19T06:23:47;160672.69;;;7.96;100.00
42945;BME280;28584;42.636;23.294;2023-04-19T06:26:12;160710.00;;;8.10;100.00
42945;BME280;28584;42.636;23.294;2023-04-19T06:28:37;160699.34;;;8.06;100.00
42945;BME280;28584;42.636;23.294;2023-04-19T06:31:03;160715.31;;;8.12;100.00
42945;BME280;28584;42.636;23.294;2023-04-19T06:33:28;160718.03;;;8.13;100.00
42945;BME280;28584;42.636;23.294;2023-04-19T06:35:54;160664.69;;;7.93;100.00
42945;BME280;28584;42.636;23.294;2023-04-19T06:38:19;160766.06;;;8.31;100.00
42945;BME280;28584;42.636;23.294;2023-04-19T06:40:45;160822.09;;;8.52;100.00
42945;BME280;28584;42.636;23.294;2023-04-19T06:43:10;160891.41;;;8.78;100.00
42945;BME280;28584;42.636;23.294;2023-04-19T06:45:36;160871.44;;;8.71;100.00
42945;BME280;28584;42.636;23.294;2023-04-19T06:48:01;160799.41;;;8.43;100.00
42945;BME280;28584;42.636;23.294;2023-04-19T06:50:26;160819.44;;;8.51;100.00
42945;BME280;28584;42.636;23.294;2023-04-19T06:52:52;160867.44;;;8.69;100.00
42945;BME280;28584;42.636;23.294;2023-04-19T06:55:18;160880.75;;;8.74;100.00
42945;BME280;28584;42.636;23.294;2023-04-19T06:57:43;160884.75;;;8.76;100.00
42945;BME280;28584;42.636;23.294;2023-04-19T07:00:09;160986.16;;;9.14;100.00
42945;BME280;28584;42.636;23.294;2023-04-19T07:02:35;160931.47;;;8.93;100.00
42945;BME280;28584;42.636;23.294;2023-04-19T07:05:01;161004.84;;;9.21;100.00
42945;BME280;28584;42.636;23.294;2023-04-19T07:07:26;161104.94;;;9.58;100.00
42945;BME280;28584;42.636;23.294;2023-04-19T07:09:51;161112.94;;;9.61;100.00
42945;BME280;28584;42.636;23.294;2023-04-19T07:12:17;161159.69;;;9.79;100.00
42945;BME280;28584;42.636;23.294;2023-04-19T07:14:42;161222.44;;;10.02;100.00
42945;BME280;28584;42.636;23.294;2023-04-19T07:17:07;161254.56;;;10.14;100.00
42945;BME280;28584;42.636;23.294;2023-04-19T07:19:33;161239.88;;;10.09;100.00
42945;BME280;28584;42.636;23.294;2023-04-19T07:22:00;161267.91;;;10.19;100.00
42945;BME280;28584;42.636;23.294;2023-04-19T07:24:27;161377.44;;;10.60;100.00
42945;BME280;28584;42.636;23.294;2023-04-19T07:26:54;161380.09;;;10.61;100.00
42945;BME280;28584;42.636;23.294;2023-04-19T07:29:20;161350.72;;;10.50;100.00
42945;BME280;28584;42.636;23.294;2023-04-19T07:31:46;161378.78;;;10.61;100.00
42945;BME280;28584;42.636;23.294;2023-04-19T07:34:11;161398.81;;;10.68;100.00
42945;BME280;28584;42.636;23.294;2023-04-19T07:36:37;161267.91;;;10.19;100.00
42945;BME280;28584;42.636;23.294;2023-04-19T07:39:03;161547.16;;;11.24;100.00
42945;BME280;28584;42.636;23.294;2023-04-19T07:41:30;161644.75;;;11.61;100.00
42945;BME280;28584;42.636;23.294;2023-04-19T07:43:55;161414.84;;;10.74;100.00
42945;BME280;28584;42.636;23.294;2023-04-19T07:46:21;161390.78;;;10.65;100.00
42945;BME280;28584;42.636;23.294;2023-04-19T07:48:46;161412.19;;;10.73;100.00
42945;BME280;28584;42.636;23.294;2023-04-19T07:51:15;161366.75;;;10.56;100.00
42945;BME280;28584;42.636;23.294;2023-04-19T07:53:42;161328.00;;;10.42;100.00
42945;BME280;28584;42.636;23.294;2023-04-19T07:56:08;161390.78;;;10.65;100.00
42945;BME280;28584;42.636;23.294;2023-04-19T07:58:35;161523.09;;;11.15;100.00
42945;BME280;28584;42.636;23.294;2023-04-19T08:01:01;161492.34;;;11.03;100.00
42945;BME280;28584;42.636;23.294;2023-04-19T08:03:26;161580.56;;;11.37;100.00
42945;BME280;28584;42.636;23.294;2023-04-19T08:05:52;161548.47;;;11.24;100.00
42945;BME280;28584;42.636;23.294;2023-04-19T08:08:17;161489.69;;;11.02;100.00
42945;BME280;28584;42.636;23.294;2023-04-19T08:10:43;161565.88;;;11.31;100.00
42945;BME280;28584;42.636;23.294;2023-04-19T08:13:08;161366.75;;;10.56;100.00
42945;BME280;28584;42.636;23.294;2023-04-19T08:15:34;161332.03;;;10.43;100.00
42945;BME280;28584;42.636;23.294;2023-04-19T08:17:59;161384.13;;;10.63;100.00
42945;BME280;28584;42.636;23.294;2023-04-19T08:20:25;161414.84;;;10.74;100.00
42945;BME280;28584;42.636;23.294;2023-04-19T08:22:51;161450.91;;;10.88;100.00
42945;BME280;28584;42.636;23.294;2023-04-19T08:25:16;161345.41;;;10.48;100.00
42945;BME280;28584;42.636;23.294;2023-04-19T08:27:42;161345.41;;;10.48;100.00
42945;BME280;28584;42.636;23.294;2023-04-19T08:30:07;161454.91;;;10.89;100.00
42945;BME280;28584;42.636;23.294;2023-04-19T08:32:34;161348.06;;;10.49;100.00
42945;BME280;28584;42.636;23.294;2023-04-19T08:35:00;161396.16;;;10.67;100.00
42945;BME280;28584;42.636;23.294;2023-04-19T08:37:26;161658.16;;;11.66;100.00
42945;BME280;28584;42.636;23.294;2023-04-19T08:39:51;161750.44;;;12.00;100.00
42945;BME280;28584;42.636;23.294;2023-04-19T08:42:17;161666.19;;;11.69;100.00
42945;BME280;28584;42.636;23.294;2023-04-19T08:44:43;161700.94;;;11.82;100.00
42945;BME280;28584;42.636;23.294;2023-04-19T08:47:10;161596.63;;;11.43;100.00
42945;BME280;28584;42.636;23.294;2023-04-19T08:49:35;161634.06;;;11.57;100.00
42945;BME280;28584;42.636;23.294;2023-04-19T08:52:03;161644.75;;;11.61;100.00
42945;BME280;28584;42.636;23.294;2023-04-19T08:54:29;161690.28;;;11.78;100.00
42945;BME280;28584;42.636;23.294;2023-04-19T08:56:58;161623.38;;;11.53;100.00
42945;BME280;28584;42.636;23.294;2023-04-19T08:59:24;161580.56;;;11.37;100.00
42945;BME280;28584;42.636;23.294;2023-04-19T09:01:50;161461.63;;;10.92;100.00
42945;BME280;28584;42.636;23.294;2023-04-19T09:04:15;161503.06;;;11.07;100.00
42945;BME280;28584;42.636;23.294;2023-04-19T09:06:41;161479.00;;;10.98;100.00
42945;BME280;28584;42.636;23.294;2023-04-19T09:11:42;161497.69;;;11.05;100.00
42945;BME280;28584;42.636;23.294;2023-04-19T09:14:12;161564.53;;;11.31;100.00
42945;BME280;28584;42.636;23.294;2023-04-19T09:16:37;161620.66;;;11.52;100.00
42945;BME280;28584;42.636;23.294;2023-04-19T09:19:04;161700.94;;;11.82;100.00
42945;BME280;28584;42.636;23.294;2023-04-19T09:21:31;161640.72;;;11.59;100.00
42945;BME280;28584;42.636;23.294;2023-04-19T09:23:57;161695.59;;;11.80;100.00
42945;BME280;28584;42.636;23.294;2023-04-19T09:26:22;161668.84;;;11.70;100.00
42945;BME280;28584;42.636;23.294;2023-04-19T09:28:55;161615.34;;;11.50;100.00
42945;BME280;28584;42.636;23.294;2023-04-19T09:31:21;161565.88;;;11.31;100.00
42945;BME280;28584;42.636;23.294;2023-04-19T09:33:46;161588.59;;;11.40;100.00
42945;BME280;28584;42.636;23.294;2023-04-19T09:36:25;161571.19;;;11.33;100.00
42945;BME280;28584;42.636;23.294;2023-04-19T09:38:51;161552.47;;;11.26;100.00
42945;BME280;28584;42.636;23.294;2023-04-19T09:41:17;161658.16;;;11.66;100.00
42945;BME280;28584;42.636;23.294;2023-04-19T09:43:43;161700.94;;;11.82;100.00
42945;BME280;28584;42.636;23.294;2023-04-19T09:46:31;161615.34;;;11.50;100.00
42945;BME280;28584;42.636;23.294;2023-04-19T09:51:47;161733.03;;;11.94;100.00
42945;BME280;28584;42.636;23.294;2023-04-19T09:54:15;161834.69;;;12.32;100.00
42945;BME280;28584;42.636;23.294;2023-04-19T09:56:41;161955.09;;;12.77;100.00
42945;BME280;28584;42.636;23.294;2023-04-19T09:59:07;161873.50;;;12.46;100.00
42945;BME280;28584;42.636;23.294;2023-04-19T10:01:37;161849.38;;;12.37;100.00
42945;BME280;28584;42.636;23.294;2023-04-19T10:04:06;161803.97;;;12.20;100.00
42945;BME280;28584;42.636;23.294;2023-04-19T10:06:34;161797.22;;;12.18;100.00
42945;BME280;28584;42.636;23.294;2023-04-19T10:09:01;161785.22;;;12.13;100.00
42945;BME280;28584;42.636;23.294;2023-04-19T10:11:36;161874.84;;;12.47;100.00
42945;BME280;28584;42.636;23.294;2023-04-19T10:14:07;161856.13;;;12.40;100.00
42945;BME280;28584;42.636;23.294;2023-04-19T10:16:33;161770.47;;;12.08;100.00
42945;BME280;28584;42.636;23.294;2023-04-19T10:19:01;161493.69;;;11.04;100.00
42945;BME280;28584;42.636;23.294;2023-04-19T10:21:27;161652.81;;;11.64;100.00
42945;BME280;28584;42.636;23.294;2023-04-19T10:23:54;161700.94;;;11.82;100.00
42945;BME280;28584;42.636;23.294;2023-04-19T10:26:20;161721.03;;;11.89;100.00
42945;BME280;28584;42.636;23.294;2023-04-19T10:28:46;161663.53;;;11.68;100.00
42945;BME280;28584;42.636;23.294;2023-04-19T10:31:12;161941.72;;;12.72;100.00
42945;BME280;28584;42.636;23.294;2023-04-19T10:33:38;162114.44;;;13.36;100.00
42945;BME280;28584;42.636;23.294;2023-04-19T10:36:08;162169.38;;;13.57;95.51
42945;BME280;28584;42.636;23.294;2023-04-19T10:38:51;162147.91;;;13.49;92.42
42945;BME280;28584;42.636;23.294;2023-04-19T10:41:18;162178.72;;;13.60;90.11
42945;BME280;28584;42.636;23.294;2023-04-19T10:44:09;162142.59;;;13.47;90.16
42945;BME280;28584;42.636;23.294;2023-04-19T10:46:37;162038.13;;;13.08;100.00
42945;BME280;28584;42.636;23.294;2023-04-19T10:49:04;162014.06;;;12.99;99.59
42945;BME280;28584;42.636;23.294;2023-04-19T10:51:37;162068.94;;;13.19;92.91
42945;BME280;28584;42.636;23.294;2023-04-19T10:54:05;162062.25;;;13.17;91.70
42945;BME280;28584;42.636;23.294;2023-04-19T11:01:38;162256.38;;;13.89;74.36
42945;BME280;28584;42.636;23.294;2023-04-19T11:06:31;162241.63;;;13.84;71.14
42945;BME280;28584;42.636;23.294;2023-04-19T11:08:56;162192.09;;;13.65;80.90
42945;BME280;28584;42.636;23.294;2023-04-19T11:11:22;161973.84;;;12.84;80.07
42945;BME280;28584;42.636;23.294;2023-04-19T11:13:50;161781.22;;;12.12;93.87
42945;BME280;28584;42.636;23.294;2023-04-19T11:16:15;161793.22;;;12.16;100.00
42945;BME280;28584;42.636;23.294;2023-04-19T11:18:41;161941.72;;;12.72;100.00
42945;BME280;28584;42.636;23.294;2023-04-19T11:21:12;161980.56;;;12.86;92.73
42945;BME280;28584;42.636;23.294;2023-04-19T11:23:38;161913.63;;;12.61;88.73
42945;BME280;28584;42.636;23.294;2023-04-19T11:26:03;161941.72;;;12.72;87.94
42945;BME280;28584;42.636;23.294;2023-04-19T11:28:29;161980.56;;;12.86;88.48
42945;BME280;28584;42.636;23.294;2023-04-19T11:30:55;161862.81;;;12.42;88.21
42945;BME280;28584;42.636;23.294;2023-04-19T11:33:22;161916.31;;;12.62;88.83
42945;BME280;28584;42.636;23.294;2023-04-19T11:35:49;161906.94;;;12.59;98.23
42945;BME280;28584;42.636;23.294;2023-04-19T11:38:15;161940.38;;;12.71;97.67
42945;BME280;28584;42.636;23.294;2023-04-19T11:40:40;162062.25;;;13.17;86.85
42945;BME280;28584;42.636;23.294;2023-04-19T11:43:06;162074.31;;;13.21;85.71
42945;BME280;28584;42.636;23.294;2023-04-19T11:45:33;161985.88;;;12.88;88.48
42945;BME280;28584;42.636;23.294;2023-04-19T11:48:00;162011.31;;;12.98;86.24
42945;BME280;28584;42.636;23.294;2023-04-19T11:52:58;162064.91;;;13.18;82.60
42945;BME280;28584;42.636;23.294;2023-04-19T11:55:24;162106.41;;;13.33;80.24
42945;BME280;28584;42.636;23.294;2023-04-19T11:57:49;162067.63;;;13.19;73.49
42945;BME280;28584;42.636;23.294;2023-04-19T12:00:15;162078.31;;;13.23;73.16
42945;BME280;28584;42.636;23.294;2023-04-19T12:02:42;162086.34;;;13.26;70.38
42945;BME280;28584;42.636;23.294;2023-04-19T12:05:10;162098.38;;;13.30;68.90
42945;BME280;28584;42.636;23.294;2023-04-19T12:07:35;162091.69;;;13.28;71.08
42945;BME280;28584;42.636;23.294;2023-04-19T12:10:08;162139.88;;;13.46;72.75
42945;BME280;28584;42.636;23.294;2023-04-19T12:12:35;162244.34;;;13.85;69.85
42945;BME280;28584;42.636;23.294;2023-04-19T12:15:00;162273.81;;;13.96;66.27
42945;BME280;28584;42.636;23.294;2023-04-19T12:17:26;162469.47;;;14.69;64.22
42945;BME280;28584;42.636;23.294;2023-04-19T12:19:51;162289.91;;;14.02;62.30
42945;BME280;28584;42.636;23.294;2023-04-19T12:22:18;161967.16;;;12.81;66.82
42945;BME280;28584;42.636;23.294;2023-04-19T12:24:52;162079.63;;;13.23;70.60
42945;BME280;28584;42.636;23.294;2023-04-19T12:27:18;162169.38;;;13.57;72.83
42945;BME280;28584;42.636;23.294;2023-04-19T12:29:43;162205.50;;;13.70;69.21
42945;BME280;28584;42.636;23.294;2023-04-19T12:32:09;162094.34;;;13.29;69.90
42945;BME280;28584;42.636;23.294;2023-04-19T12:34:35;162099.72;;;13.31;68.84
42945;BME280;28584;42.636;23.294;2023-04-19T12:37:01;162220.22;;;13.76;67.69
42945;BME280;28584;42.636;23.294;2023-04-19T12:39:29;162158.63;;;13.53;64.67
42945;BME280;28584;42.636;23.294;2023-04-19T12:41:55;162019.38;;;13.01;70.66
42945;BME280;28584;42.636;23.294;2023-04-19T12:44:21;161987.25;;;12.89;77.73
42945;BME280;28584;42.636;23.294;2023-04-19T12:46:47;162032.81;;;13.06;75.76
42945;BME280;28584;42.636;23.294;2023-04-19T12:49:12;162047.53;;;13.11;75.50